| time (UTC) | temp F | wind direction | speed knots | gust knots | rain 1hr in | rain 24hr in | rain mn in | humidity % | barometer mb |
| 20260506163616 | 77 | 169 | 0.0 | 4.3 | 0.00 | 0.00 | 0.00 | 42 | 1042.5 |
| 20260506162756 | 78 | 172 | 0.9 | 0.0 | 0.00 | 0.00 | 0.00 | 41 | 1042.5 |
| 20260506161936 | 79 | 148 | 0.0 | 1.7 | 0.00 | 0.00 | 0.00 | 41 | 1042.5 |
| 20260506161116 | 79 | 163 | 2.6 | 5.2 | 0.00 | 0.00 | 0.00 | 40 | 1042.5 |
| 20260506160256 | 80 | 146 | 4.3 | 7.0 | 0.00 | 0.00 | 0.00 | 40 | 1042.5 |
| 20260506155436 | 81 | 163 | 2.6 | 8.7 | 0.00 | 0.00 | 0.00 | 40 | 1042.5 |
| 20260506154616 | 81 | 158 | 0.0 | 0.0 | 0.00 | 0.00 | 0.00 | 39 | 1042.5 |
| 20260506153756 | 82 | 222 | 0.9 | 4.3 | 0.00 | 0.00 | 0.00 | 39 | 1042.5 |
| 20260506152936 | 82 | 300 | 0.0 | 0.0 | 0.00 | 0.00 | 0.00 | 39 | 1042.5 |
| 20260506152116 | 82 | 341 | 0.9 | 7.0 | 0.00 | 0.00 | 0.00 | 39 | 1042.5 |
| 20260506151256 | 82 | 292 | 2.6 | 4.3 | 0.00 | 0.00 | 0.00 | 38 | 1042.5 |
| 20260506150436 | 83 | 300 | 0.0 | 0.0 | 0.00 | 0.00 | 0.00 | 38 | 1042.5 |
| 20260506145616 | 83 | 247 | 0.0 | 0.9 | 0.00 | 0.00 | 0.00 | 38 | 1042.5 |
| 20260506144756 | 83 | 306 | 0.0 | 0.0 | 0.00 | 0.00 | 0.00 | 38 | 1042.5 |
| 20260506143936 | 83 | 292 | 0.9 | 1.7 | 0.00 | 0.00 | 0.00 | 38 | 1042.5 |
| 20260506143116 | 83 | 281 | 0.0 | 4.3 | 0.00 | 0.00 | 0.00 | 38 | 1042.5 |
| 20260506142256 | 83 | 292 | 0.0 | 0.0 | 0.00 | 0.00 | 0.00 | 37 | 1042.5 |
| 20260506141436 | 84 | 258 | 0.0 | 0.0 | 0.00 | 0.00 | 0.00 | 38 | 1042.5 |
| 20260506140616 | 84 | 249 | 0.0 | 0.0 | 0.00 | 0.00 | 0.00 | 38 | 1042.5 |
| 20260506135756 | 84 | 295 | 0.0 | 0.0 | 0.00 | 0.00 | 0.00 | 38 | 1042.5 |
| 20260506134936 | 84 | 278 | 0.0 | 2.6 | 0.00 | 0.00 | 0.00 | 37 | 1042.5 |
| 20260506134116 | 84 | 224 | 0.0 | 0.9 | 0.00 | 0.00 | 0.00 | 36 | 1042.5 |
| 20260506133256 | 84 | 292 | 0.0 | 0.0 | 0.00 | 0.00 | 0.00 | 37 | 1042.5 |
| 20260506132436 | 84 | 265 | 0.0 | 0.0 | 0.00 | 0.00 | 0.00 | 36 | 1042.5 |
| 20260506131616 | 84 | 0 | 0.0 | 0.0 | 0.00 | 0.00 | 0.00 | 36 | 1042.5 |
| 20260506130756 | 83 | 300 | 0.0 | 0.0 | 0.00 | 0.00 | 0.00 | 38 | 1042.5 |
| 20260506125936 | 83 | 305 | 0.0 | 0.0 | 0.00 | 0.00 | 0.00 | 38 | 1042.5 |
| 20260506125116 | 83 | 303 | 0.0 | 0.0 | 0.00 | 0.00 | 0.00 | 38 | 1042.5 |
| 20260506124256 | 83 | 322 | 0.0 | 0.0 | 0.00 | 0.00 | 0.00 | 38 | 1042.5 |
| 20260506123436 | 83 | 265 | 0.0 | 0.0 | 0.00 | 0.00 | 0.00 | 38 | 1042.5 |
| 20260506122616 | 83 | 196 | 0.0 | 0.0 | 0.00 | 0.00 | 0.00 | 36 | 1042.5 |
| 20260506121756 | 83 | 154 | 0.0 | 0.0 | 0.00 | 0.00 | 0.00 | 37 | 1042.5 |
| 20260506120936 | 83 | 149 | 0.0 | 0.0 | 0.00 | 0.00 | 0.00 | 36 | 1042.5 |
| 20260506120116 | 82 | 315 | 0.0 | 0.0 | 0.00 | 0.00 | 0.00 | 39 | 1042.5 |
| 20260506115256 | 82 | 292 | 0.0 | 0.0 | 0.00 | 0.00 | 0.00 | 37 | 1042.5 |
| 20260506114436 | 81 | 277 | 0.0 | 0.0 | 0.00 | 0.00 | 0.00 | 38 | 1042.5 |
| 20260506113616 | 81 | 292 | 0.0 | 0.0 | 0.00 | 0.00 | 0.00 | 36 | 1042.5 |
| 20260506112756 | 81 | 125 | 0.0 | 0.0 | 0.00 | 0.00 | 0.00 | 38 | 1042.5 |
| 20260506111936 | 80 | 181 | 0.0 | 0.0 | 0.00 | 0.00 | 0.00 | 38 | 1042.5 |
| 20260506111116 | 80 | 158 | 0.0 | 0.0 | 0.00 | 0.00 | 0.00 | 37 | 1042.5 |
| 20260506110256 | 81 | 128 | 0.0 | 0.0 | 0.00 | 0.00 | 0.00 | 38 | 1042.5 |
| 20260506105436 | 80 | 175 | 0.0 | 0.0 | 0.00 | 0.00 | 0.00 | 39 | 1042.5 |
| 20260506104616 | 80 | 135 | 0.0 | 0.0 | 0.00 | 0.00 | 0.00 | 39 | 1042.5 |
| 20260506103756 | 79 | 140 | 0.0 | 0.0 | 0.00 | 0.00 | 0.00 | 40 | 1042.5 |
| 20260506102936 | 79 | 162 | 0.0 | 1.7 | 0.00 | 0.00 | 0.00 | 40 | 1042.5 |
| 20260506102116 | 78 | 263 | 0.0 | 0.0 | 0.00 | 0.00 | 0.00 | 41 | 1042.5 |
| 20260506101256 | 78 | 138 | 0.0 | 0.0 | 0.00 | 0.00 | 0.00 | 40 | 1042.5 |
| 20260506100436 | 78 | 148 | 0.0 | 0.0 | 0.00 | 0.00 | 0.00 | 42 | 1042.5 |
| 20260506095616 | 77 | 225 | 0.0 | 0.0 | 0.00 | 0.00 | 0.00 | 42 | 1042.5 |
| 20260506094756 | 77 | 200 | 0.0 | 0.0 | 0.00 | 0.00 | 0.00 | 42 | 1042.5 |
| 20260506093936 | 76 | 297 | 0.0 | 0.0 | 0.00 | 0.00 | 0.00 | 43 | 1042.5 |
| 20260506093116 | 76 | 294 | 0.0 | 0.0 | 0.00 | 0.00 | 0.00 | 43 | 1042.5 |
| 20260506092256 | 76 | 189 | 0.0 | 0.0 | 0.00 | 0.00 | 0.00 | 44 | 1042.5 |
| 20260506091436 | 75 | 225 | 0.0 | 0.0 | 0.00 | 0.00 | 0.00 | 45 | 1042.5 |
| 20260506090616 | 74 | 0 | 0.0 | 0.0 | 0.00 | 0.00 | 0.00 | 45 | 1042.5 |
| 20260506085756 | 74 | 71 | 0.0 | 2.6 | 0.00 | 0.00 | 0.00 | 46 | 1042.5 |
| 20260506084936 | 73 | 309 | 0.0 | 0.0 | 0.00 | 0.00 | 0.00 | 47 | 1042.5 |
| 20260506084116 | 72 | 209 | 0.0 | 0.0 | 0.00 | 0.00 | 0.00 | 49 | 1042.5 |
| 20260506082756 | 72 | 242 | 0.0 | 0.0 | 0.00 | 0.00 | 0.00 | 49 | 1042.5 |
| 20260506081936 | 72 | 135 | 0.0 | 0.0 | 0.00 | 0.00 | 0.00 | 48 | 1042.5 |
| 20260506081116 | 71 | 292 | 0.0 | 0.0 | 0.00 | 0.00 | 0.00 | 47 | 1042.5 |
| 20260506080256 | 71 | 287 | 0.0 | 0.0 | 0.00 | 0.00 | 0.00 | 49 | 1042.5 |
| 20260506072936 | 68 | 180 | 0.0 | 0.0 | 0.00 | 0.00 | 0.00 | 53 | 1042.5 |
| 20260506072116 | 68 | 135 | 0.0 | 0.0 | 0.00 | 0.00 | 0.00 | 52 | 1042.5 |
| 20260506071256 | 67 | 135 | 0.0 | 0.0 | 0.00 | 0.00 | 0.00 | 53 | 1042.5 |
| 20260506070436 | 67 | 177 | 0.0 | 0.0 | 0.00 | 0.00 | 0.00 | 54 | 1042.5 |
| 20260506062256 | 64 | 45 | 0.0 | 0.0 | 0.00 | 0.00 | 0.00 | 59 | 1042.5 |
| 20260506061436 | 63 | 45 | 0.0 | 0.0 | 0.00 | 0.00 | 0.00 | 62 | 1042.5 |
| 20260506060616 | 62 | 45 | 0.0 | 0.0 | 0.00 | 0.00 | 0.00 | 64 | 1042.5 |
| 20260506050756 | 58 | 109 | 0.0 | 0.0 | 0.00 | 0.00 | 0.00 | 72 | 1042.5 |
| 20260506045116 | 56 | 112 | 0.0 | 0.0 | 0.00 | 0.00 | 0.00 | 77 | 1042.5 |
| 20260506044256 | 55 | 153 | 0.0 | 0.0 | 0.00 | 0.00 | 0.00 | 79 | 1042.5 |
| 20260506043436 | 54 | 270 | 0.0 | 0.0 | 0.00 | 0.00 | 0.00 | 80 | 1042.5 |
| 20260506042616 | 52 | 270 | 0.0 | 0.0 | 0.00 | 0.00 | 0.00 | 83 | 1042.5 |
| 20260506041756 | 51 | 270 | 0.0 | 0.0 | 0.00 | 0.00 | 0.00 | 84 | 1042.5 |
| 20260506040936 | 50 | 270 | 0.0 | 0.0 | 0.00 | 0.00 | 0.00 | 85 | 1042.5 |
| 20260506040116 | 49 | 270 | 0.0 | 0.0 | 0.00 | 0.00 | 0.00 | 84 | 1042.5 |
| 20260506035256 | 49 | 270 | 0.0 | 0.0 | 0.00 | 0.00 | 0.00 | 84 | 1042.5 |
| 20260506034436 | 49 | 270 | 0.0 | 0.0 | 0.00 | 0.00 | 0.00 | 84 | 1042.5 |
| 20260506033615 | 48 | 270 | 0.0 | 0.0 | 0.00 | 0.00 | 0.00 | 84 | 1042.5 |
| 20260506032755 | 48 | 270 | 0.0 | 0.0 | 0.00 | 0.00 | 0.00 | 84 | 1042.5 |
| 20260506031935 | 48 | 270 | 0.0 | 0.0 | 0.00 | 0.00 | 0.00 | 84 | 1042.5 |
| 20260506031115 | 48 | 292 | 0.0 | 0.0 | 0.00 | 0.00 | 0.00 | 84 | 1042.5 |
| 20260506030255 | 49 | 292 | 0.0 | 0.0 | 0.00 | 0.00 | 0.00 | 84 | 1042.5 |
| 20260506025435 | 49 | 292 | 0.0 | 0.0 | 0.00 | 0.00 | 0.00 | 84 | 1042.5 |
| 20260506024615 | 49 | 292 | 0.0 | 0.0 | 0.00 | 0.00 | 0.00 | 84 | 1042.5 |
| 20260506023755 | 49 | 292 | 0.0 | 0.0 | 0.00 | 0.00 | 0.00 | 83 | 1042.5 |
| 20260506022935 | 50 | 292 | 0.0 | 0.0 | 0.00 | 0.00 | 0.00 | 84 | 1042.5 |
| 20260506022115 | 50 | 292 | 0.0 | 0.0 | 0.00 | 0.00 | 0.00 | 84 | 1042.5 |
| 20260506021255 | 49 | 292 | 0.0 | 0.0 | 0.00 | 0.00 | 0.00 | 84 | 1042.5 |
| 20260506020435 | 49 | 292 | 0.0 | 0.0 | 0.00 | 0.00 | 0.00 | 83 | 1042.5 |
| 20260506015615 | 50 | 292 | 0.0 | 0.0 | 0.00 | 0.00 | 0.00 | 83 | 1042.5 |
| 20260506014755 | 50 | 292 | 0.0 | 0.0 | 0.00 | 0.00 | 0.00 | 82 | 1042.5 |
| 20260506013935 | 50 | 292 | 0.0 | 0.0 | 0.00 | 0.00 | 0.00 | 82 | 1042.5 |
| 20260506013115 | 50 | 292 | 0.0 | 0.0 | 0.00 | 0.00 | 0.00 | 82 | 1042.5 |
| 20260506012255 | 50 | 292 | 0.0 | 0.0 | 0.00 | 0.00 | 0.00 | 81 | 1042.5 |
| 20260506011435 | 51 | 296 | 0.0 | 0.0 | 0.00 | 0.00 | 0.00 | 80 | 1042.5 |
| 20260506010615 | 51 | 292 | 0.0 | 0.0 | 0.00 | 0.00 | 0.00 | 80 | 1042.5 |
| 20260506005755 | 51 | 292 | 0.0 | 0.0 | 0.00 | 0.00 | 0.00 | 80 | 1042.5 |
| 20260506004935 | 51 | 292 | 0.0 | 0.0 | 0.00 | 0.00 | 0.00 | 80 | 1042.5 |
| 20260506004115 | 51 | 292 | 0.0 | 0.0 | 0.00 | 0.00 | 0.00 | 80 | 1042.5 |
| 20260506003255 | 51 | 292 | 0.0 | 0.0 | 0.00 | 0.00 | 0.00 | 80 | 1042.5 |
| 20260506002435 | 51 | 292 | 0.0 | 0.0 | 0.00 | 0.00 | 0.00 | 80 | 1042.5 |
| 20260506001615 | 51 | 292 | 0.0 | 0.0 | 0.00 | 0.00 | 0.00 | 79 | 1042.5 |
| 20260506000755 | 51 | 292 | 0.0 | 0.0 | 0.00 | 0.00 | 0.00 | 79 | 1042.5 |
| 20260505235935 | 52 | 292 | 0.0 | 0.0 | 0.00 | 0.00 | 0.00 | 78 | 1042.5 |
| 20260505235115 | 52 | 292 | 0.0 | 0.0 | 0.00 | 0.00 | 0.00 | 77 | 1042.5 |
| 20260505234255 | 53 | 292 | 0.0 | 0.0 | 0.00 | 0.00 | 0.00 | 77 | 1042.5 |
| 20260505233435 | 53 | 289 | 0.0 | 0.0 | 0.00 | 0.00 | 0.00 | 76 | 1042.5 |
| 20260505232615 | 53 | 270 | 0.0 | 0.0 | 0.00 | 0.00 | 0.00 | 76 | 1042.5 |
| 20260505231755 | 53 | 270 | 0.0 | 0.0 | 0.00 | 0.00 | 0.00 | 77 | 1042.5 |
| 20260505230935 | 53 | 270 | 0.0 | 0.0 | 0.00 | 0.00 | 0.00 | 76 | 1042.5 |
| 20260505230115 | 54 | 270 | 0.0 | 0.0 | 0.00 | 0.00 | 0.00 | 75 | 1042.5 |
| 20260505225255 | 54 | 270 | 0.0 | 0.0 | 0.00 | 0.00 | 0.00 | 74 | 1042.5 |
| 20260505224435 | 55 | 270 | 0.0 | 0.0 | 0.00 | 0.00 | 0.00 | 72 | 1042.5 |
| 20260505223615 | 55 | 270 | 0.0 | 0.0 | 0.00 | 0.00 | 0.00 | 71 | 1042.5 |
| 20260505222755 | 55 | 270 | 0.0 | 0.0 | 0.00 | 0.00 | 0.00 | 71 | 1042.5 |
| 20260505221935 | 56 | 270 | 0.0 | 0.0 | 0.00 | 0.00 | 0.00 | 70 | 1042.5 |
| 20260505221115 | 56 | 270 | 0.0 | 0.0 | 0.00 | 0.00 | 0.00 | 70 | 1042.5 |
| 20260505220255 | 56 | 270 | 0.0 | 0.0 | 0.00 | 0.00 | 0.00 | 69 | 1042.5 |
| 20260505215435 | 57 | 270 | 0.0 | 0.0 | 0.00 | 0.00 | 0.00 | 67 | 1042.5 |
| 20260505214615 | 57 | 270 | 0.0 | 0.0 | 0.00 | 0.00 | 0.00 | 66 | 1042.5 |
| 20260505213755 | 58 | 270 | 0.0 | 0.0 | 0.00 | 0.00 | 0.00 | 65 | 1042.5 |
| 20260505212935 | 58 | 270 | 0.0 | 0.0 | 0.00 | 0.00 | 0.00 | 64 | 1042.5 |
| 20260505212115 | 58 | 270 | 0.0 | 0.0 | 0.00 | 0.00 | 0.00 | 65 | 1042.5 |
| 20260505211255 | 58 | 270 | 0.0 | 0.0 | 0.00 | 0.00 | 0.00 | 64 | 1042.5 |
| 20260505210435 | 58 | 292 | 0.0 | 0.0 | 0.00 | 0.00 | 0.00 | 64 | 1042.5 |
| 20260505205615 | 58 | 292 | 0.0 | 0.0 | 0.00 | 0.00 | 0.00 | 64 | 1042.5 |
| 20260505204755 | 59 | 292 | 0.0 | 0.0 | 0.00 | 0.00 | 0.00 | 64 | 1042.5 |
| 20260505203935 | 59 | 292 | 0.0 | 0.0 | 0.00 | 0.00 | 0.00 | 64 | 1042.5 |
| 20260505203115 | 59 | 292 | 0.0 | 0.0 | 0.00 | 0.00 | 0.00 | 63 | 1042.5 |
| 20260505202255 | 60 | 292 | 0.0 | 0.0 | 0.00 | 0.00 | 0.00 | 62 | 1042.5 |
| 20260505201435 | 61 | 202 | 0.0 | 0.0 | 0.00 | 0.00 | 0.00 | 59 | 1042.5 |
| 20260505200614 | 62 | 202 | 0.0 | 0.0 | 0.00 | 0.00 | 0.00 | 57 | 1042.5 |
| 20260505195755 | 62 | 202 | 0.0 | 0.0 | 0.00 | 0.00 | 0.00 | 54 | 1042.5 |
| 20260505194947 | 63 | 180 | 0.9 | 2.6 | 0.00 | 0.00 | 0.00 | 52 | 1042.5 |
| 20260505194114 | 62 | 182 | 0.9 | 1.7 | 0.00 | 0.00 | 0.00 | 52 | 1042.5 |
| 20260505193254 | 63 | 180 | 0.0 | 0.0 | 0.00 | 0.00 | 0.00 | 52 | 1042.5 |
| 20260505192434 | 63 | 180 | 0.9 | 0.0 | 0.00 | 0.00 | 0.00 | 51 | 1042.5 |
| 20260505191614 | 64 | 158 | 0.0 | 0.0 | 0.00 | 0.00 | 0.00 | 50 | 1042.5 |
| 20260505190754 | 64 | 182 | 0.9 | 0.0 | 0.00 | 0.00 | 0.00 | 51 | 1042.5 |
| 20260505185934 | 64 | 180 | 0.0 | 0.0 | 0.00 | 0.00 | 0.00 | 51 | 1042.5 |
| 20260505185114 | 64 | 202 | 0.0 | 0.0 | 0.00 | 0.00 | 0.00 | 49 | 1042.5 |
| 20260505184254 | 65 | 180 | 0.0 | 1.7 | 0.00 | 0.00 | 0.00 | 48 | 1042.5 |
| 20260505183434 | 65 | 143 | 0.0 | 0.9 | 0.00 | 0.00 | 0.00 | 48 | 1042.5 |
| 20260505182614 | 65 | 169 | 0.0 | 0.0 | 0.00 | 0.00 | 0.00 | 47 | 1042.5 |
| 20260505181754 | 66 | 180 | 0.0 | 0.0 | 0.00 | 0.00 | 0.00 | 47 | 1042.5 |
| 20260505180934 | 66 | 147 | 0.9 | 4.3 | 0.00 | 0.00 | 0.00 | 47 | 1042.5 |
| 20260505180114 | 66 | 158 | 1.7 | 2.6 | 0.00 | 0.00 | 0.00 | 46 | 1042.5 |
| 20260505175254 | 67 | 145 | 0.0 | 0.0 | 0.00 | 0.00 | 0.00 | 45 | 1042.5 |
| 20260505174434 | 67 | 128 | 0.9 | 6.1 | 0.00 | 0.00 | 0.00 | 45 | 1042.5 |
| 20260505173614 | 68 | 157 | 4.3 | 7.0 | 0.00 | 0.00 | 0.00 | 44 | 1042.5 |
| 20260505172754 | 68 | 127 | 5.2 | 5.2 | 0.00 | 0.00 | 0.00 | 44 | 1042.5 |
| 20260505171934 | 69 | 147 | 7.0 | 8.7 | 0.00 | 0.00 | 0.00 | 44 | 1042.5 |
| 20260505171114 | 69 | 142 | 2.6 | 8.7 | 0.00 | 0.00 | 0.00 | 44 | 1042.5 |
| 20260505170254 | 70 | 147 | 5.2 | 6.1 | 0.00 | 0.00 | 0.00 | 44 | 1042.5 |
| 20260505165434 | 70 | 158 | 4.3 | 7.0 | 0.00 | 0.00 | 0.00 | 45 | 1042.5 |
| 20260505164614 | 70 | 147 | 5.2 | 7.8 | 0.00 | 0.00 | 0.00 | 44 | 1042.5 |